sensor_id;sensor_type;location;lat;lon;timestamp;P1;durP1;ratioP1;P2;durP2;ratioP2
19251;SDS011;9760;50.944;5.304;2022-07-06T00:02:02;8.13;;;2.30;;
19251;SDS011;9760;50.944;5.304;2022-07-06T00:04:28;7.30;;;2.30;;
19251;SDS011;9760;50.944;5.304;2022-07-06T00:06:54;7.70;;;2.73;;
19251;SDS011;9760;50.944;5.304;2022-07-06T00:09:20;6.47;;;2.47;;
19251;SDS011;9760;50.944;5.304;2022-07-06T00:11:45;7.10;;;2.70;;
19251;SDS011;9760;50.944;5.304;2022-07-06T00:14:11;5.50;;;2.77;;
19251;SDS011;9760;50.944;5.304;2022-07-06T00:16:36;9.23;;;4.50;;
19251;SDS011;9760;50.944;5.304;2022-07-06T00:19:02;11.67;;;3.70;;
19251;SDS011;9760;50.944;5.304;2022-07-06T00:21:28;4.97;;;2.33;;
19251;SDS011;9760;50.944;5.304;2022-07-06T00:23:53;13.60;;;2.80;;
19251;SDS011;9760;50.944;5.304;2022-07-06T00:26:19;5.57;;;2.30;;
19251;SDS011;9760;50.944;5.304;2022-07-06T00:28:45;2.50;;;1.93;;
19251;SDS011;9760;50.944;5.304;2022-07-06T00:31:11;7.87;;;2.77;;
19251;SDS011;9760;50.944;5.304;2022-07-06T00:33:36;6.47;;;2.60;;
19251;SDS011;9760;50.944;5.304;2022-07-06T00:36:02;6.50;;;2.57;;
19251;SDS011;9760;50.944;5.304;2022-07-06T00:38:28;5.93;;;2.47;;
19251;SDS011;9760;50.944;5.304;2022-07-06T00:40:54;5.70;;;2.83;;
19251;SDS011;9760;50.944;5.304;2022-07-06T00:43:19;5.97;;;2.77;;
19251;SDS011;9760;50.944;5.304;2022-07-06T00:45:45;5.50;;;2.77;;
19251;SDS011;9760;50.944;5.304;2022-07-06T00:48:11;7.23;;;3.40;;
19251;SDS011;9760;50.944;5.304;2022-07-06T00:50:37;7.73;;;2.77;;
19251;SDS011;9760;50.944;5.304;2022-07-06T00:53:04;8.37;;;2.90;;
19251;SDS011;9760;50.944;5.304;2022-07-06T00:55:33;8.70;;;2.90;;
19251;SDS011;9760;50.944;5.304;2022-07-06T00:58:05;9.23;;;2.90;;
19251;SDS011;9760;50.944;5.304;2022-07-06T01:00:32;8.20;;;2.80;;
19251;SDS011;9760;50.944;5.304;2022-07-06T01:02:58;6.83;;;2.80;;
19251;SDS011;9760;50.944;5.304;2022-07-06T01:05:24;7.90;;;3.07;;
19251;SDS011;9760;50.944;5.304;2022-07-06T01:07:51;16.17;;;3.13;;
19251;SDS011;9760;50.944;5.304;2022-07-06T01:10:17;5.83;;;2.70;;
19251;SDS011;9760;50.944;5.304;2022-07-06T01:12:45;11.10;;;3.93;;
19251;SDS011;9760;50.944;5.304;2022-07-06T01:15:21;8.10;;;2.73;;
19251;SDS011;9760;50.944;5.304;2022-07-06T01:17:48;13.57;;;2.97;;
19251;SDS011;9760;50.944;5.304;2022-07-06T01:20:15;7.43;;;2.73;;
19251;SDS011;9760;50.944;5.304;2022-07-06T01:22:42;11.40;;;3.53;;
19251;SDS011;9760;50.944;5.304;2022-07-06T01:25:09;13.23;;;4.00;;
19251;SDS011;9760;50.944;5.304;2022-07-06T01:27:36;8.37;;;2.83;;
19251;SDS011;9760;50.944;5.304;2022-07-06T01:30:04;12.30;;;2.90;;
19251;SDS011;9760;50.944;5.304;2022-07-06T01:32:32;6.70;;;3.27;;
19251;SDS011;9760;50.944;5.304;2022-07-06T01:34:57;7.30;;;3.03;;
19251;SDS011;9760;50.944;5.304;2022-07-06T01:37:23;8.77;;;3.00;;
19251;SDS011;9760;50.944;5.304;2022-07-06T01:39:49;16.77;;;2.90;;
19251;SDS011;9760;50.944;5.304;2022-07-06T01:42:14;6.80;;;2.80;;
19251;SDS011;9760;50.944;5.304;2022-07-06T01:44:40;7.57;;;2.80;;
19251;SDS011;9760;50.944;5.304;2022-07-06T01:47:06;10.97;;;3.20;;
19251;SDS011;9760;50.944;5.304;2022-07-06T01:49:31;7.77;;;3.20;;
19251;SDS011;9760;50.944;5.304;2022-07-06T01:51:57;8.70;;;3.13;;
19251;SDS011;9760;50.944;5.304;2022-07-06T01:54:22;5.10;;;3.63;;
19251;SDS011;9760;50.944;5.304;2022-07-06T01:56:48;10.33;;;3.63;;
19251;SDS011;9760;50.944;5.304;2022-07-06T01:59:14;15.17;;;3.67;;
19251;SDS011;9760;50.944;5.304;2022-07-06T02:01:39;11.87;;;3.40;;
19251;SDS011;9760;50.944;5.304;2022-07-06T02:04:05;10.50;;;3.40;;
19251;SDS011;9760;50.944;5.304;2022-07-06T02:06:30;6.83;;;2.93;;
19251;SDS011;9760;50.944;5.304;2022-07-06T02:08:56;10.27;;;3.63;;
19251;SDS011;9760;50.944;5.304;2022-07-06T02:11:22;10.17;;;3.40;;
19251;SDS011;9760;50.944;5.304;2022-07-06T02:13:48;5.60;;;3.00;;
19251;SDS011;9760;50.944;5.304;2022-07-06T02:16:14;6.50;;;3.40;;
19251;SDS011;9760;50.944;5.304;2022-07-06T02:18:40;6.87;;;3.20;;
19251;SDS011;9760;50.944;5.304;2022-07-06T02:21:05;8.10;;;3.73;;
19251;SDS011;9760;50.944;5.304;2022-07-06T02:23:31;5.50;;;3.10;;
19251;SDS011;9760;50.944;5.304;2022-07-06T02:25:57;9.90;;;3.03;;
19251;SDS011;9760;50.944;5.304;2022-07-06T02:28:23;11.43;;;3.57;;
19251;SDS011;9760;50.944;5.304;2022-07-06T02:30:48;5.70;;;2.80;;
19251;SDS011;9760;50.944;5.304;2022-07-06T02:33:14;6.37;;;3.37;;
19251;SDS011;9760;50.944;5.304;2022-07-06T02:35:40;5.57;;;2.93;;
19251;SDS011;9760;50.944;5.304;2022-07-06T02:38:08;9.40;;;3.20;;
19251;SDS011;9760;50.944;5.304;2022-07-06T02:40:34;10.00;;;3.83;;
19251;SDS011;9760;50.944;5.304;2022-07-06T02:43:00;7.67;;;3.13;;
19251;SDS011;9760;50.944;5.304;2022-07-06T02:45:26;9.10;;;2.90;;
19251;SDS011;9760;50.944;5.304;2022-07-06T02:47:51;5.97;;;3.10;;
19251;SDS011;9760;50.944;5.304;2022-07-06T02:50:18;6.17;;;3.30;;
19251;SDS011;9760;50.944;5.304;2022-07-06T02:52:43;4.87;;;3.33;;
19251;SDS011;9760;50.944;5.304;2022-07-06T02:55:09;8.50;;;4.03;;
19251;SDS011;9760;50.944;5.304;2022-07-06T02:57:35;5.90;;;3.40;;
19251;SDS011;9760;50.944;5.304;2022-07-06T03:00:00;5.47;;;2.87;;
19251;SDS011;9760;50.944;5.304;2022-07-06T03:02:26;7.37;;;3.20;;
19251;SDS011;9760;50.944;5.304;2022-07-06T03:04:52;8.17;;;3.30;;
19251;SDS011;9760;50.944;5.304;2022-07-06T03:07:18;5.43;;;3.17;;
19251;SDS011;9760;50.944;5.304;2022-07-06T03:09:43;6.13;;;3.50;;
19251;SDS011;9760;50.944;5.304;2022-07-06T03:12:09;10.17;;;3.20;;
19251;SDS011;9760;50.944;5.304;2022-07-06T03:14:34;10.40;;;3.30;;
19251;SDS011;9760;50.944;5.304;2022-07-06T03:17:00;6.47;;;3.47;;
19251;SDS011;9760;50.944;5.304;2022-07-06T03:19:26;10.67;;;3.30;;
19251;SDS011;9760;50.944;5.304;2022-07-06T03:21:51;4.20;;;2.90;;
19251;SDS011;9760;50.944;5.304;2022-07-06T03:24:17;9.80;;;3.50;;
19251;SDS011;9760;50.944;5.304;2022-07-06T03:26:43;11.30;;;3.60;;
19251;SDS011;9760;50.944;5.304;2022-07-06T03:29:08;17.77;;;4.50;;
19251;SDS011;9760;50.944;5.304;2022-07-06T03:31:34;5.13;;;3.20;;
19251;SDS011;9760;50.944;5.304;2022-07-06T03:34:00;9.57;;;3.60;;
19251;SDS011;9760;50.944;5.304;2022-07-06T03:36:26;7.43;;;3.03;;
19251;SDS011;9760;50.944;5.304;2022-07-06T03:38:51;5.33;;;3.17;;
19251;SDS011;9760;50.944;5.304;2022-07-06T03:41:17;8.87;;;3.90;;
19251;SDS011;9760;50.944;5.304;2022-07-06T03:43:42;7.83;;;3.33;;
19251;SDS011;9760;50.944;5.304;2022-07-06T03:46:08;7.00;;;3.37;;
19251;SDS011;9760;50.944;5.304;2022-07-06T03:48:34;5.57;;;3.40;;
19251;SDS011;9760;50.944;5.304;2022-07-06T03:50:59;10.60;;;3.83;;
19251;SDS011;9760;50.944;5.304;2022-07-06T03:53:25;7.13;;;3.67;;
19251;SDS011;9760;50.944;5.304;2022-07-06T03:55:51;9.53;;;3.20;;
19251;SDS011;9760;50.944;5.304;2022-07-06T03:58:35;6.60;;;3.00;;
19251;SDS011;9760;50.944;5.304;2022-07-06T04:01:01;7.40;;;3.77;;
19251;SDS011;9760;50.944;5.304;2022-07-06T04:03:27;7.73;;;3.20;;
19251;SDS011;9760;50.944;5.304;2022-07-06T04:05:52;9.63;;;3.37;;
19251;SDS011;9760;50.944;5.304;2022-07-06T04:08:18;8.50;;;3.20;;
19251;SDS011;9760;50.944;5.304;2022-07-06T04:10:44;11.93;;;3.90;;
19251;SDS011;9760;50.944;5.304;2022-07-06T04:13:11;7.63;;;3.43;;
19251;SDS011;9760;50.944;5.304;2022-07-06T04:15:36;8.00;;;3.33;;
19251;SDS011;9760;50.944;5.304;2022-07-06T04:18:02;11.57;;;4.17;;
19251;SDS011;9760;50.944;5.304;2022-07-06T04:20:28;7.77;;;3.90;;
19251;SDS011;9760;50.944;5.304;2022-07-06T04:22:54;4.73;;;3.50;;
19251;SDS011;9760;50.944;5.304;2022-07-06T04:25:19;12.50;;;4.17;;
19251;SDS011;9760;50.944;5.304;2022-07-06T04:27:45;16.87;;;4.17;;
19251;SDS011;9760;50.944;5.304;2022-07-06T04:30:10;9.83;;;4.37;;
19251;SDS011;9760;50.944;5.304;2022-07-06T04:32:36;5.50;;;3.60;;
19251;SDS011;9760;50.944;5.304;2022-07-06T04:35:03;12.83;;;5.40;;
19251;SDS011;9760;50.944;5.304;2022-07-06T04:37:30;20.63;;;7.33;;
19251;SDS011;9760;50.944;5.304;2022-07-06T04:39:56;18.00;;;7.27;;
19251;SDS011;9760;50.944;5.304;2022-07-06T04:42:21;10.30;;;4.33;;
19251;SDS011;9760;50.944;5.304;2022-07-06T04:44:47;12.57;;;4.40;;
19251;SDS011;9760;50.944;5.304;2022-07-06T04:47:13;14.23;;;5.00;;
19251;SDS011;9760;50.944;5.304;2022-07-06T04:49:39;11.33;;;4.20;;
19251;SDS011;9760;50.944;5.304;2022-07-06T04:52:04;15.13;;;4.27;;
19251;SDS011;9760;50.944;5.304;2022-07-06T04:54:30;9.03;;;4.40;;
19251;SDS011;9760;50.944;5.304;2022-07-06T04:56:56;9.30;;;5.30;;
19251;SDS011;9760;50.944;5.304;2022-07-06T04:59:22;14.73;;;4.90;;
19251;SDS011;9760;50.944;5.304;2022-07-06T05:01:48;10.60;;;4.60;;
19251;SDS011;9760;50.944;5.304;2022-07-06T05:04:13;12.97;;;5.00;;
19251;SDS011;9760;50.944;5.304;2022-07-06T05:06:39;15.03;;;5.90;;
19251;SDS011;9760;50.944;5.304;2022-07-06T05:09:05;12.60;;;4.57;;
19251;SDS011;9760;50.944;5.304;2022-07-06T05:11:31;11.80;;;4.53;;
19251;SDS011;9760;50.944;5.304;2022-07-06T05:13:57;13.30;;;5.30;;
19251;SDS011;9760;50.944;5.304;2022-07-06T05:16:22;9.13;;;4.27;;
19251;SDS011;9760;50.944;5.304;2022-07-06T05:18:48;20.57;;;7.47;;
19251;SDS011;9760;50.944;5.304;2022-07-06T05:21:14;8.97;;;4.30;;
19251;SDS011;9760;50.944;5.304;2022-07-06T05:23:40;8.53;;;4.53;;
19251;SDS011;9760;50.944;5.304;2022-07-06T05:26:06;8.37;;;4.63;;
19251;SDS011;9760;50.944;5.304;2022-07-06T05:28:31;10.33;;;4.00;;
19251;SDS011;9760;50.944;5.304;2022-07-06T05:30:57;9.27;;;3.90;;
19251;SDS011;9760;50.944;5.304;2022-07-06T05:33:23;11.37;;;4.13;;
19251;SDS011;9760;50.944;5.304;2022-07-06T05:35:48;12.50;;;4.07;;
19251;SDS011;9760;50.944;5.304;2022-07-06T05:38:14;13.77;;;3.90;;
19251;SDS011;9760;50.944;5.304;2022-07-06T05:40:40;8.37;;;4.30;;
19251;SDS011;9760;50.944;5.304;2022-07-06T05:43:06;8.83;;;3.67;;
19251;SDS011;9760;50.944;5.304;2022-07-06T05:45:32;6.10;;;3.93;;
19251;SDS011;9760;50.944;5.304;2022-07-06T05:47:57;9.50;;;3.50;;
19251;SDS011;9760;50.944;5.304;2022-07-06T05:50:41;8.80;;;3.33;;
19251;SDS011;9760;50.944;5.304;2022-07-06T05:53:07;9.60;;;3.03;;
19251;SDS011;9760;50.944;5.304;2022-07-06T05:55:33;6.40;;;2.87;;
19251;SDS011;9760;50.944;5.304;2022-07-06T05:57:59;6.23;;;3.00;;
19251;SDS011;9760;50.944;5.304;2022-07-06T06:00:25;14.93;;;3.77;;
19251;SDS011;9760;50.944;5.304;2022-07-06T06:02:52;15.30;;;3.93;;
19251;SDS011;9760;50.944;5.304;2022-07-06T06:05:18;7.20;;;3.80;;
19251;SDS011;9760;50.944;5.304;2022-07-06T06:07:44;9.20;;;3.57;;
19251;SDS011;9760;50.944;5.304;2022-07-06T06:10:15;6.53;;;3.97;;
19251;SDS011;9760;50.944;5.304;2022-07-06T06:12:41;13.43;;;4.50;;
19251;SDS011;9760;50.944;5.304;2022-07-06T06:15:09;11.53;;;3.50;;
19251;SDS011;9760;50.944;5.304;2022-07-06T06:17:35;8.13;;;3.27;;
19251;SDS011;9760;50.944;5.304;2022-07-06T06:20:02;6.07;;;3.30;;
19251;SDS011;9760;50.944;5.304;2022-07-06T06:22:29;10.97;;;4.43;;
19251;SDS011;9760;50.944;5.304;2022-07-06T06:24:54;8.50;;;3.83;;
19251;SDS011;9760;50.944;5.304;2022-07-06T06:27:20;18.03;;;4.63;;
19251;SDS011;9760;50.944;5.304;2022-07-06T06:29:45;11.07;;;4.10;;
19251;SDS011;9760;50.944;5.304;2022-07-06T06:32:12;11.70;;;4.80;;
19251;SDS011;9760;50.944;5.304;2022-07-06T06:34:41;14.87;;;4.43;;
19251;SDS011;9760;50.944;5.304;2022-07-06T06:37:07;11.10;;;4.50;;
19251;SDS011;9760;50.944;5.304;2022-07-06T06:39:32;12.60;;;4.27;;
19251;SDS011;9760;50.944;5.304;2022-07-06T06:41:58;8.30;;;4.20;;
19251;SDS011;9760;50.944;5.304;2022-07-06T06:44:24;13.17;;;4.70;;
19251;SDS011;9760;50.944;5.304;2022-07-06T06:46:50;11.77;;;4.00;;
19251;SDS011;9760;50.944;5.304;2022-07-06T06:49:17;11.97;;;3.40;;
19251;SDS011;9760;50.944;5.304;2022-07-06T06:51:43;11.83;;;3.87;;
19251;SDS011;9760;50.944;5.304;2022-07-06T06:54:09;15.07;;;3.80;;
19251;SDS011;9760;50.944;5.304;2022-07-06T06:56:35;9.93;;;3.40;;
19251;SDS011;9760;50.944;5.304;2022-07-06T06:59:00;13.03;;;3.20;;
19251;SDS011;9760;50.944;5.304;2022-07-06T07:01:27;8.37;;;2.80;;
19251;SDS011;9760;50.944;5.304;2022-07-06T07:03:52;13.07;;;3.20;;
19251;SDS011;9760;50.944;5.304;2022-07-06T07:06:20;16.13;;;4.53;;
19251;SDS011;9760;50.944;5.304;2022-07-06T07:08:46;8.57;;;2.90;;
19251;SDS011;9760;50.944;5.304;2022-07-06T07:11:12;4.83;;;2.90;;
19251;SDS011;9760;50.944;5.304;2022-07-06T07:13:37;8.07;;;3.23;;
19251;SDS011;9760;50.944;5.304;2022-07-06T07:16:03;8.23;;;3.00;;
19251;SDS011;9760;50.944;5.304;2022-07-06T07:18:29;4.87;;;2.07;;
19251;SDS011;9760;50.944;5.304;2022-07-06T07:20:54;7.77;;;2.10;;
19251;SDS011;9760;50.944;5.304;2022-07-06T07:23:20;7.07;;;1.97;;
19251;SDS011;9760;50.944;5.304;2022-07-06T07:25:46;5.87;;;1.90;;
19251;SDS011;9760;50.944;5.304;2022-07-06T07:28:11;5.77;;;1.60;;
19251;SDS011;9760;50.944;5.304;2022-07-06T07:30:37;3.80;;;1.40;;
19251;SDS011;9760;50.944;5.304;2022-07-06T07:33:02;11.33;;;1.47;;
19251;SDS011;9760;50.944;5.304;2022-07-06T07:35:28;5.90;;;1.17;;
19251;SDS011;9760;50.944;5.304;2022-07-06T07:37:54;2.80;;;1.20;;
19251;SDS011;9760;50.944;5.304;2022-07-06T07:40:20;6.50;;;1.50;;
19251;SDS011;9760;50.944;5.304;2022-07-06T07:42:46;3.27;;;1.47;;
19251;SDS011;9760;50.944;5.304;2022-07-06T07:45:12;6.43;;;1.33;;
19251;SDS011;9760;50.944;5.304;2022-07-06T07:47:38;2.27;;;1.30;;
19251;SDS011;9760;50.944;5.304;2022-07-06T07:50:04;4.70;;;1.43;;
19251;SDS011;9760;50.944;5.304;2022-07-06T07:52:31;4.40;;;1.00;;
19251;SDS011;9760;50.944;5.304;2022-07-06T07:54:57;4.03;;;1.00;;
19251;SDS011;9760;50.944;5.304;2022-07-06T07:57:22;5.37;;;1.07;;
19251;SDS011;9760;50.944;5.304;2022-07-06T07:59:48;2.87;;;0.77;;
19251;SDS011;9760;50.944;5.304;2022-07-06T08:02:14;2.20;;;0.93;;
19251;SDS011;9760;50.944;5.304;2022-07-06T08:04:39;2.00;;;0.70;;
19251;SDS011;9760;50.944;5.304;2022-07-06T08:07:05;2.40;;;0.80;;
19251;SDS011;9760;50.944;5.304;2022-07-06T08:09:31;5.67;;;1.50;;
19251;SDS011;9760;50.944;5.304;2022-07-06T08:11:57;4.43;;;1.07;;
19251;SDS011;9760;50.944;5.304;2022-07-06T08:14:23;6.73;;;1.10;;
19251;SDS011;9760;50.944;5.304;2022-07-06T08:16:49;3.43;;;1.13;;
19251;SDS011;9760;50.944;5.304;2022-07-06T08:19:15;3.80;;;1.27;;
19251;SDS011;9760;50.944;5.304;2022-07-06T08:21:41;2.50;;;1.00;;
19251;SDS011;9760;50.944;5.304;2022-07-06T08:24:08;1.63;;;0.70;;
19251;SDS011;9760;50.944;5.304;2022-07-06T08:26:35;5.63;;;1.50;;
19251;SDS011;9760;50.944;5.304;2022-07-06T08:29:01;1.87;;;0.70;;
19251;SDS011;9760;50.944;5.304;2022-07-06T08:31:26;3.13;;;0.70;;
19251;SDS011;9760;50.944;5.304;2022-07-06T08:33:52;3.40;;;0.90;;
19251;SDS011;9760;50.944;5.304;2022-07-06T08:36:19;2.90;;;0.90;;
19251;SDS011;9760;50.944;5.304;2022-07-06T08:38:45;0.87;;;0.60;;
19251;SDS011;9760;50.944;5.304;2022-07-06T08:41:11;1.40;;;0.80;;
19251;SDS011;9760;50.944;5.304;2022-07-06T08:43:39;5.80;;;1.07;;
19251;SDS011;9760;50.944;5.304;2022-07-06T08:46:05;4.03;;;0.70;;
19251;SDS011;9760;50.944;5.304;2022-07-06T08:48:34;5.87;;;0.90;;
19251;SDS011;9760;50.944;5.304;2022-07-06T08:51:01;4.77;;;0.80;;
19251;SDS011;9760;50.944;5.304;2022-07-06T08:53:27;2.17;;;0.63;;
19251;SDS011;9760;50.944;5.304;2022-07-06T08:55:53;1.07;;;0.80;;
19251;SDS011;9760;50.944;5.304;2022-07-06T08:58:19;4.93;;;0.90;;
19251;SDS011;9760;50.944;5.304;2022-07-06T09:00:48;5.00;;;1.10;;
19251;SDS011;9760;50.944;5.304;2022-07-06T09:03:14;2.83;;;0.70;;
19251;SDS011;9760;50.944;5.304;2022-07-06T09:05:40;1.80;;;0.80;;
19251;SDS011;9760;50.944;5.304;2022-07-06T09:08:08;2.70;;;0.80;;
19251;SDS011;9760;50.944;5.304;2022-07-06T09:10:33;1.60;;;0.73;;
19251;SDS011;9760;50.944;5.304;2022-07-06T09:13:03;3.23;;;0.60;;
19251;SDS011;9760;50.944;5.304;2022-07-06T09:15:30;3.33;;;0.73;;
19251;SDS011;9760;50.944;5.304;2022-07-06T09:17:56;5.63;;;1.00;;
19251;SDS011;9760;50.944;5.304;2022-07-06T09:20:22;7.90;;;0.70;;
19251;SDS011;9760;50.944;5.304;2022-07-06T09:22:49;5.57;;;1.00;;
19251;SDS011;9760;50.944;5.304;2022-07-06T09:25:15;2.47;;;0.80;;
19251;SDS011;9760;50.944;5.304;2022-07-06T09:27:45;4.87;;;0.83;;
19251;SDS011;9760;50.944;5.304;2022-07-06T09:30:13;4.53;;;0.90;;
19251;SDS011;9760;50.944;5.304;2022-07-06T09:32:40;1.27;;;0.70;;
19251;SDS011;9760;50.944;5.304;2022-07-06T09:35:07;4.00;;;0.70;;
19251;SDS011;9760;50.944;5.304;2022-07-06T09:37:34;3.37;;;0.80;;
19251;SDS011;9760;50.944;5.304;2022-07-06T09:39:59;1.33;;;1.00;;
19251;SDS011;9760;50.944;5.304;2022-07-06T09:42:25;6.27;;;1.30;;
19251;SDS011;9760;50.944;5.304;2022-07-06T09:44:51;1.83;;;1.00;;
19251;SDS011;9760;50.944;5.304;2022-07-06T09:47:18;3.33;;;1.00;;
19251;SDS011;9760;50.944;5.304;2022-07-06T09:49:45;5.57;;;0.90;;
19251;SDS011;9760;50.944;5.304;2022-07-06T09:52:11;1.90;;;0.73;;
19251;SDS011;9760;50.944;5.304;2022-07-06T09:54:38;2.73;;;1.13;;
19251;SDS011;9760;50.944;5.304;2022-07-06T09:57:04;5.97;;;1.20;;
19251;SDS011;9760;50.944;5.304;2022-07-06T09:59:32;4.57;;;1.00;;
19251;SDS011;9760;50.944;5.304;2022-07-06T10:02:00;4.10;;;0.90;;
19251;SDS011;9760;50.944;5.304;2022-07-06T10:04:28;6.60;;;1.63;;
19251;SDS011;9760;50.944;5.304;2022-07-06T10:06:55;3.23;;;1.33;;
19251;SDS011;9760;50.944;5.304;2022-07-06T10:09:22;5.10;;;1.70;;
19251;SDS011;9760;50.944;5.304;2022-07-06T10:11:50;3.43;;;1.50;;
19251;SDS011;9760;50.944;5.304;2022-07-06T10:14:21;8.90;;;1.50;;
19251;SDS011;9760;50.944;5.304;2022-07-06T10:16:48;3.30;;;1.23;;
19251;SDS011;9760;50.944;5.304;2022-07-06T10:19:15;3.90;;;1.10;;
19251;SDS011;9760;50.944;5.304;2022-07-06T10:21:42;4.93;;;1.40;;
19251;SDS011;9760;50.944;5.304;2022-07-06T10:24:09;3.67;;;0.80;;
19251;SDS011;9760;50.944;5.304;2022-07-06T10:26:37;3.83;;;1.13;;
19251;SDS011;9760;50.944;5.304;2022-07-06T10:29:03;4.00;;;1.50;;
19251;SDS011;9760;50.944;5.304;2022-07-06T10:31:29;5.37;;;1.53;;
19251;SDS011;9760;50.944;5.304;2022-07-06T10:33:57;3.60;;;1.37;;
19251;SDS011;9760;50.944;5.304;2022-07-06T10:36:25;2.67;;;1.60;;
19251;SDS011;9760;50.944;5.304;2022-07-06T10:38:51;1.87;;;1.00;;
19251;SDS011;9760;50.944;5.304;2022-07-06T10:41:18;3.47;;;1.40;;
19251;SDS011;9760;50.944;5.304;2022-07-06T10:46:51;4.00;;;1.13;;
19251;SDS011;9760;50.944;5.304;2022-07-06T10:49:18;8.20;;;1.40;;
19251;SDS011;9760;50.944;5.304;2022-07-06T10:51:44;5.97;;;1.17;;
19251;SDS011;9760;50.944;5.304;2022-07-06T10:54:11;6.67;;;1.27;;
19251;SDS011;9760;50.944;5.304;2022-07-06T10:56:47;4.10;;;1.10;;
19251;SDS011;9760;50.944;5.304;2022-07-06T10:59:16;9.10;;;1.57;;
19251;SDS011;9760;50.944;5.304;2022-07-06T11:04:45;3.47;;;1.20;;
19251;SDS011;9760;50.944;5.304;2022-07-06T11:07:14;3.70;;;1.13;;
19251;SDS011;9760;50.944;5.304;2022-07-06T11:09:39;9.07;;;1.47;;
19251;SDS011;9760;50.944;5.304;2022-07-06T11:12:16;5.30;;;1.33;;
19251;SDS011;9760;50.944;5.304;2022-07-06T11:14:46;6.93;;;1.47;;
19251;SDS011;9760;50.944;5.304;2022-07-06T11:17:14;4.23;;;1.27;;
19251;SDS011;9760;50.944;5.304;2022-07-06T11:20:08;3.60;;;1.50;;
19251;SDS011;9760;50.944;5.304;2022-07-06T11:22:36;4.40;;;1.50;;
19251;SDS011;9760;50.944;5.304;2022-07-06T11:25:02;6.17;;;1.63;;
19251;SDS011;9760;50.944;5.304;2022-07-06T11:27:29;20.10;;;1.67;;
19251;SDS011;9760;50.944;5.304;2022-07-06T11:29:55;7.00;;;1.40;;
19251;SDS011;9760;50.944;5.304;2022-07-06T11:32:24;5.23;;;1.33;;
19251;SDS011;9760;50.944;5.304;2022-07-06T11:34:51;5.77;;;1.00;;
19251;SDS011;9760;50.944;5.304;2022-07-06T11:37:16;3.17;;;1.33;;
19251;SDS011;9760;50.944;5.304;2022-07-06T11:39:43;6.73;;;1.40;;
19251;SDS011;9760;50.944;5.304;2022-07-06T11:42:11;7.20;;;1.57;;
19251;SDS011;9760;50.944;5.304;2022-07-06T11:44:39;3.67;;;1.33;;
19251;SDS011;9760;50.944;5.304;2022-07-06T11:47:06;6.10;;;1.57;;
19251;SDS011;9760;50.944;5.304;2022-07-06T11:49:33;3.70;;;1.37;;
19251;SDS011;9760;50.944;5.304;2022-07-06T11:52:00;5.20;;;1.40;;
19251;SDS011;9760;50.944;5.304;2022-07-06T11:54:34;3.83;;;1.63;;
19251;SDS011;9760;50.944;5.304;2022-07-06T11:57:00;4.37;;;1.70;;
19251;SDS011;9760;50.944;5.304;2022-07-06T11:59:29;5.13;;;1.57;;
19251;SDS011;9760;50.944;5.304;2022-07-06T12:02:03;3.73;;;1.30;;
19251;SDS011;9760;50.944;5.304;2022-07-06T12:04:31;5.00;;;1.20;;
19251;SDS011;9760;50.944;5.304;2022-07-06T12:07:00;5.63;;;1.37;;
19251;SDS011;9760;50.944;5.304;2022-07-06T12:09:46;2.07;;;1.20;;
19251;SDS011;9760;50.944;5.304;2022-07-06T12:12:13;4.87;;;1.20;;
19251;SDS011;9760;50.944;5.304;2022-07-06T12:14:40;7.03;;;1.60;;
19251;SDS011;9760;50.944;5.304;2022-07-06T12:17:07;6.67;;;1.47;;
19251;SDS011;9760;50.944;5.304;2022-07-06T12:19:35;5.70;;;1.43;;
19251;SDS011;9760;50.944;5.304;2022-07-06T12:22:02;4.97;;;1.40;;
19251;SDS011;9760;50.944;5.304;2022-07-06T12:24:29;3.13;;;1.40;;
19251;SDS011;9760;50.944;5.304;2022-07-06T12:26:56;3.60;;;1.40;;
19251;SDS011;9760;50.944;5.304;2022-07-06T12:29:23;4.40;;;1.30;;
19251;SDS011;9760;50.944;5.304;2022-07-06T12:31:51;6.90;;;1.60;;
19251;SDS011;9760;50.944;5.304;2022-07-06T12:34:22;6.10;;;1.20;;
19251;SDS011;9760;50.944;5.304;2022-07-06T12:36:55;5.90;;;1.07;;
19251;SDS011;9760;50.944;5.304;2022-07-06T12:39:23;6.63;;;1.50;;
19251;SDS011;9760;50.944;5.304;2022-07-06T12:41:51;2.90;;;1.07;;
19251;SDS011;9760;50.944;5.304;2022-07-06T12:44:19;6.13;;;1.33;;
19251;SDS011;9760;50.944;5.304;2022-07-06T12:46:47;3.43;;;1.23;;
19251;SDS011;9760;50.944;5.304;2022-07-06T12:49:20;5.90;;;1.50;;
19251;SDS011;9760;50.944;5.304;2022-07-06T12:52:09;4.80;;;1.10;;
19251;SDS011;9760;50.944;5.304;2022-07-06T12:54:50;4.83;;;1.30;;
19251;SDS011;9760;50.944;5.304;2022-07-06T13:00:03;4.33;;;1.40;;
19251;SDS011;9760;50.944;5.304;2022-07-06T13:02:31;4.57;;;1.60;;
19251;SDS011;9760;50.944;5.304;2022-07-06T13:05:07;5.53;;;1.47;;
19251;SDS011;9760;50.944;5.304;2022-07-06T13:07:38;4.33;;;1.83;;
19251;SDS011;9760;50.944;5.304;2022-07-06T13:10:09;8.83;;;1.77;;
19251;SDS011;9760;50.944;5.304;2022-07-06T13:12:37;4.60;;;1.83;;
19251;SDS011;9760;50.944;5.304;2022-07-06T13:15:03;9.00;;;1.63;;
19251;SDS011;9760;50.944;5.304;2022-07-06T13:17:30;4.97;;;1.60;;
19251;SDS011;9760;50.944;5.304;2022-07-06T13:19:56;3.83;;;1.50;;
19251;SDS011;9760;50.944;5.304;2022-07-06T13:22:22;6.93;;;1.70;;
19251;SDS011;9760;50.944;5.304;2022-07-06T13:24:47;6.53;;;1.97;;
19251;SDS011;9760;50.944;5.304;2022-07-06T13:27:13;6.93;;;2.73;;
19251;SDS011;9760;50.944;5.304;2022-07-06T13:29:39;4.03;;;1.57;;
19251;SDS011;9760;50.944;5.304;2022-07-06T13:32:04;8.97;;;2.00;;
19251;SDS011;9760;50.944;5.304;2022-07-06T13:34:31;6.87;;;1.63;;
19251;SDS011;9760;50.944;5.304;2022-07-06T13:36:58;6.43;;;1.67;;
19251;SDS011;9760;50.944;5.304;2022-07-06T13:39:23;12.77;;;2.53;;
19251;SDS011;9760;50.944;5.304;2022-07-06T13:41:52;8.50;;;1.80;;
19251;SDS011;9760;50.944;5.304;2022-07-06T13:44:18;8.43;;;1.67;;
19251;SDS011;9760;50.944;5.304;2022-07-06T13:46:44;12.27;;;2.10;;
19251;SDS011;9760;50.944;5.304;2022-07-06T13:49:10;6.37;;;1.53;;
19251;SDS011;9760;50.944;5.304;2022-07-06T13:51:36;9.20;;;1.60;;
19251;SDS011;9760;50.944;5.304;2022-07-06T13:54:02;18.03;;;2.30;;
19251;SDS011;9760;50.944;5.304;2022-07-06T13:56:28;4.67;;;1.60;;
19251;SDS011;9760;50.944;5.304;2022-07-06T13:58:54;4.57;;;1.70;;
19251;SDS011;9760;50.944;5.304;2022-07-06T14:01:20;12.73;;;1.60;;
19251;SDS011;9760;50.944;5.304;2022-07-06T14:03:46;6.77;;;1.63;;
19251;SDS011;9760;50.944;5.304;2022-07-06T14:06:12;4.57;;;1.70;;
19251;SDS011;9760;50.944;5.304;2022-07-06T14:08:38;7.47;;;1.70;;
19251;SDS011;9760;50.944;5.304;2022-07-06T14:11:05;6.20;;;1.97;;
19251;SDS011;9760;50.944;5.304;2022-07-06T14:13:32;5.70;;;1.50;;
19251;SDS011;9760;50.944;5.304;2022-07-06T14:15:58;10.43;;;2.73;;
19251;SDS011;9760;50.944;5.304;2022-07-06T14:18:24;6.33;;;1.63;;
19251;SDS011;9760;50.944;5.304;2022-07-06T14:20:50;5.33;;;1.57;;
19251;SDS011;9760;50.944;5.304;2022-07-06T14:23:17;3.70;;;1.70;;
19251;SDS011;9760;50.944;5.304;2022-07-06T14:25:43;6.53;;;1.60;;
19251;SDS011;9760;50.944;5.304;2022-07-06T14:28:10;9.17;;;1.67;;
19251;SDS011;9760;50.944;5.304;2022-07-06T14:30:38;4.53;;;1.50;;
19251;SDS011;9760;50.944;5.304;2022-07-06T14:33:05;10.50;;;1.70;;
19251;SDS011;9760;50.944;5.304;2022-07-06T14:35:35;6.60;;;1.40;;
19251;SDS011;9760;50.944;5.304;2022-07-06T14:38:08;4.10;;;1.40;;
19251;SDS011;9760;50.944;5.304;2022-07-06T14:40:35;3.77;;;1.30;;
19251;SDS011;9760;50.944;5.304;2022-07-06T14:43:01;4.57;;;2.10;;
19251;SDS011;9760;50.944;5.304;2022-07-06T14:45:27;4.63;;;1.60;;
19251;SDS011;9760;50.944;5.304;2022-07-06T14:47:53;5.30;;;1.50;;
19251;SDS011;9760;50.944;5.304;2022-07-06T14:50:19;9.53;;;2.00;;
19251;SDS011;9760;50.944;5.304;2022-07-06T14:52:45;5.07;;;1.70;;
19251;SDS011;9760;50.944;5.304;2022-07-06T14:55:11;8.47;;;1.80;;
19251;SDS011;9760;50.944;5.304;2022-07-06T14:57:37;3.37;;;1.73;;
19251;SDS011;9760;50.944;5.304;2022-07-06T15:00:03;5.77;;;1.40;;
19251;SDS011;9760;50.944;5.304;2022-07-06T15:02:30;5.10;;;1.60;;
19251;SDS011;9760;50.944;5.304;2022-07-06T15:04:55;5.87;;;1.90;;